sensor_id;sensor_type;location;lat;lon;timestamp;temperature;humidity
20337;DHT22;10326;53.660;10.200;2022-12-13T00:01:38;-2.00;67.10
20337;DHT22;10326;53.660;10.200;2022-12-13T00:04:06;-2.00;67.20
20337;DHT22;10326;53.660;10.200;2022-12-13T00:06:35;-1.90;67.20
20337;DHT22;10326;53.660;10.200;2022-12-13T00:09:04;-1.90;67.20
20337;DHT22;10326;53.660;10.200;2022-12-13T00:11:32;-1.90;67.20
20337;DHT22;10326;53.660;10.200;2022-12-13T00:13:59;-1.90;67.20
20337;DHT22;10326;53.660;10.200;2022-12-13T00:16:26;-1.80;67.30
20337;DHT22;10326;53.660;10.200;2022-12-13T00:18:54;-1.80;67.20
20337;DHT22;10326;53.660;10.200;2022-12-13T00:21:24;-1.80;67.10
20337;DHT22;10326;53.660;10.200;2022-12-13T00:23:56;-1.80;67.00
20337;DHT22;10326;53.660;10.200;2022-12-13T00:26:26;-1.70;67.00
20337;DHT22;10326;53.660;10.200;2022-12-13T00:28:54;-1.80;66.90
20337;DHT22;10326;53.660;10.200;2022-12-13T00:31:23;-1.80;66.80
20337;DHT22;10326;53.660;10.200;2022-12-13T00:33:51;-1.70;66.90
20337;DHT22;10326;53.660;10.200;2022-12-13T00:36:19;-1.80;66.90
20337;DHT22;10326;53.660;10.200;2022-12-13T00:38:46;-1.80;66.80
20337;DHT22;10326;53.660;10.200;2022-12-13T00:41:27;-1.80;67.30
20337;DHT22;10326;53.660;10.200;2022-12-13T00:43:57;-1.80;66.80
20337;DHT22;10326;53.660;10.200;2022-12-13T00:46:25;-1.70;66.90
20337;DHT22;10326;53.660;10.200;2022-12-13T00:48:55;-1.80;66.90
20337;DHT22;10326;53.660;10.200;2022-12-13T00:51:24;-1.80;67.00
20337;DHT22;10326;53.660;10.200;2022-12-13T00:53:51;-1.70;67.10
20337;DHT22;10326;53.660;10.200;2022-12-13T00:56:20;-1.70;67.20
20337;DHT22;10326;53.660;10.200;2022-12-13T00:58:52;-1.70;67.30
20337;DHT22;10326;53.660;10.200;2022-12-13T01:01:21;-1.70;67.40
20337;DHT22;10326;53.660;10.200;2022-12-13T01:03:50;-1.70;67.50
20337;DHT22;10326;53.660;10.200;2022-12-13T01:06:20;-1.70;67.60
20337;DHT22;10326;53.660;10.200;2022-12-13T01:08:48;-1.60;67.80
20337;DHT22;10326;53.660;10.200;2022-12-13T01:11:17;-1.60;67.90
20337;DHT22;10326;53.660;10.200;2022-12-13T01:13:44;-1.60;68.00
20337;DHT22;10326;53.660;10.200;2022-12-13T01:16:13;-1.50;68.10
20337;DHT22;10326;53.660;10.200;2022-12-13T01:18:41;-1.50;68.20
20337;DHT22;10326;53.660;10.200;2022-12-13T01:21:11;-1.50;68.30
20337;DHT22;10326;53.660;10.200;2022-12-13T01:23:39;-1.40;68.40
20337;DHT22;10326;53.660;10.200;2022-12-13T01:26:09;-1.40;68.40
20337;DHT22;10326;53.660;10.200;2022-12-13T01:28:37;-1.30;68.60
20337;DHT22;10326;53.660;10.200;2022-12-13T01:31:06;-1.30;68.60
20337;DHT22;10326;53.660;10.200;2022-12-13T01:33:36;-1.30;68.80
20337;DHT22;10326;53.660;10.200;2022-12-13T01:36:06;-1.20;68.90
20337;DHT22;10326;53.660;10.200;2022-12-13T01:38:35;-1.20;69.00
20337;DHT22;10326;53.660;10.200;2022-12-13T01:41:02;-1.20;68.90
20337;DHT22;10326;53.660;10.200;2022-12-13T01:43:52;-1.10;68.90
20337;DHT22;10326;53.660;10.200;2022-12-13T01:46:22;-1.00;69.20
20337;DHT22;10326;53.660;10.200;2022-12-13T01:48:55;-1.00;69.10
20337;DHT22;10326;53.660;10.200;2022-12-13T01:51:28;-1.00;69.20
20337;DHT22;10326;53.660;10.200;2022-12-13T01:54:00;-0.90;69.20
20337;DHT22;10326;53.660;10.200;2022-12-13T01:56:32;-0.90;69.20
20337;DHT22;10326;53.660;10.200;2022-12-13T01:59:02;-0.90;69.10
20337;DHT22;10326;53.660;10.200;2022-12-13T02:01:30;-0.90;69.00
20337;DHT22;10326;53.660;10.200;2022-12-13T02:03:59;-0.80;68.90
20337;DHT22;10326;53.660;10.200;2022-12-13T02:06:31;-0.80;68.80
20337;DHT22;10326;53.660;10.200;2022-12-13T02:09:02;-0.80;68.80
20337;DHT22;10326;53.660;10.200;2022-12-13T02:11:32;-0.80;68.80
20337;DHT22;10326;53.660;10.200;2022-12-13T02:14:00;-0.80;68.80
20337;DHT22;10326;53.660;10.200;2022-12-13T02:16:38;-0.80;68.70
20337;DHT22;10326;53.660;10.200;2022-12-13T02:19:40;-0.80;68.70
20337;DHT22;10326;53.660;10.200;2022-12-13T02:22:45;-0.80;68.60
20337;DHT22;10326;53.660;10.200;2022-12-13T02:25:37;-0.80;68.40
20337;DHT22;10326;53.660;10.200;2022-12-13T02:28:27;-0.80;68.30
20337;DHT22;10326;53.660;10.200;2022-12-13T02:31:08;-0.80;68.30
20337;DHT22;10326;53.660;10.200;2022-12-13T02:33:45;-0.80;68.20
20337;DHT22;10326;53.660;10.200;2022-12-13T02:36:19;-0.80;68.20
20337;DHT22;10326;53.660;10.200;2022-12-13T02:38:54;-0.80;68.20
20337;DHT22;10326;53.660;10.200;2022-12-13T02:41:27;-0.90;68.20
20337;DHT22;10326;53.660;10.200;2022-12-13T02:44:02;-0.90;68.20
20337;DHT22;10326;53.660;10.200;2022-12-13T02:46:37;-0.90;68.20
20337;DHT22;10326;53.660;10.200;2022-12-13T02:49:08;-0.90;68.20
20337;DHT22;10326;53.660;10.200;2022-12-13T02:51:37;-0.90;68.20
20337;DHT22;10326;53.660;10.200;2022-12-13T02:54:05;-1.00;68.10
20337;DHT22;10326;53.660;10.200;2022-12-13T02:56:32;-0.90;68.20
20337;DHT22;10326;53.660;10.200;2022-12-13T02:59:04;-0.90;68.20
20337;DHT22;10326;53.660;10.200;2022-12-13T03:01:46;-0.90;68.20
20337;DHT22;10326;53.660;10.200;2022-12-13T03:04:26;-1.00;68.10
20337;DHT22;10326;53.660;10.200;2022-12-13T03:07:06;-1.00;68.10
20337;DHT22;10326;53.660;10.200;2022-12-13T03:09:46;-1.00;68.10
20337;DHT22;10326;53.660;10.200;2022-12-13T03:12:24;-1.00;68.00
20337;DHT22;10326;53.660;10.200;2022-12-13T03:15:19;-1.00;68.00
20337;DHT22;10326;53.660;10.200;2022-12-13T03:17:51;-1.00;68.00
20337;DHT22;10326;53.660;10.200;2022-12-13T03:20:23;-1.10;67.90
20337;DHT22;10326;53.660;10.200;2022-12-13T03:22:52;-1.00;68.10
20337;DHT22;10326;53.660;10.200;2022-12-13T03:25:20;-1.10;67.90
20337;DHT22;10326;53.660;10.200;2022-12-13T03:27:49;-1.10;68.00
20337;DHT22;10326;53.660;10.200;2022-12-13T03:30:17;-1.10;68.00
20337;DHT22;10326;53.660;10.200;2022-12-13T03:32:44;-1.10;68.00
20337;DHT22;10326;53.660;10.200;2022-12-13T03:35:13;-1.10;68.00
20337;DHT22;10326;53.660;10.200;2022-12-13T03:37:40;-1.10;67.90
20337;DHT22;10326;53.660;10.200;2022-12-13T03:40:08;-1.10;67.90
20337;DHT22;10326;53.660;10.200;2022-12-13T03:42:36;-1.10;67.90
20337;DHT22;10326;53.660;10.200;2022-12-13T03:45:04;-1.10;67.80
20337;DHT22;10326;53.660;10.200;2022-12-13T03:47:32;-1.20;67.70
20337;DHT22;10326;53.660;10.200;2022-12-13T03:49:59;-1.20;67.60
20337;DHT22;10326;53.660;10.200;2022-12-13T03:52:27;-1.20;67.60
20337;DHT22;10326;53.660;10.200;2022-12-13T03:54:55;-1.20;67.50
20337;DHT22;10326;53.660;10.200;2022-12-13T03:57:22;-1.20;67.50
20337;DHT22;10326;53.660;10.200;2022-12-13T03:59:49;-1.30;67.60
20337;DHT22;10326;53.660;10.200;2022-12-13T04:02:16;-1.30;67.60
20337;DHT22;10326;53.660;10.200;2022-12-13T04:04:44;-1.30;67.50
20337;DHT22;10326;53.660;10.200;2022-12-13T04:07:11;-1.30;67.50
20337;DHT22;10326;53.660;10.200;2022-12-13T04:09:39;-1.30;67.60
20337;DHT22;10326;53.660;10.200;2022-12-13T04:12:06;-1.30;67.60
20337;DHT22;10326;53.660;10.200;2022-12-13T04:14:51;-1.30;67.70
20337;DHT22;10326;53.660;10.200;2022-12-13T04:17:18;-1.30;67.70
20337;DHT22;10326;53.660;10.200;2022-12-13T04:19:45;-1.30;67.60
20337;DHT22;10326;53.660;10.200;2022-12-13T04:22:12;-1.30;68.10
20337;DHT22;10326;53.660;10.200;2022-12-13T04:24:41;-1.30;67.50
20337;DHT22;10326;53.660;10.200;2022-12-13T04:27:08;-1.40;67.40
20337;DHT22;10326;53.660;10.200;2022-12-13T04:29:36;-1.40;67.40
20337;DHT22;10326;53.660;10.200;2022-12-13T04:32:04;-1.40;67.30
20337;DHT22;10326;53.660;10.200;2022-12-13T04:34:31;-1.40;67.30
20337;DHT22;10326;53.660;10.200;2022-12-13T04:36:58;-1.40;67.30
20337;DHT22;10326;53.660;10.200;2022-12-13T04:39:25;-1.40;67.40
20337;DHT22;10326;53.660;10.200;2022-12-13T04:41:54;-1.40;67.40
20337;DHT22;10326;53.660;10.200;2022-12-13T04:44:21;-1.50;67.30
20337;DHT22;10326;53.660;10.200;2022-12-13T04:46:48;-1.50;67.40
20337;DHT22;10326;53.660;10.200;2022-12-13T04:49:15;-1.50;67.30
20337;DHT22;10326;53.660;10.200;2022-12-13T04:51:43;-1.50;67.40
20337;DHT22;10326;53.660;10.200;2022-12-13T04:54:10;-1.50;67.50
20337;DHT22;10326;53.660;10.200;2022-12-13T04:56:37;-1.50;67.50
20337;DHT22;10326;53.660;10.200;2022-12-13T04:59:06;-1.50;67.40
20337;DHT22;10326;53.660;10.200;2022-12-13T05:01:34;-1.50;67.50
20337;DHT22;10326;53.660;10.200;2022-12-13T05:04:02;-1.50;67.50
20337;DHT22;10326;53.660;10.200;2022-12-13T05:06:29;-1.50;67.50
20337;DHT22;10326;53.660;10.200;2022-12-13T05:08:56;-1.50;67.60
20337;DHT22;10326;53.660;10.200;2022-12-13T05:11:24;-1.50;67.60
20337;DHT22;10326;53.660;10.200;2022-12-13T05:13:51;-1.50;67.50
20337;DHT22;10326;53.660;10.200;2022-12-13T05:16:20;-1.50;67.50
20337;DHT22;10326;53.660;10.200;2022-12-13T05:18:47;-1.50;67.60
20337;DHT22;10326;53.660;10.200;2022-12-13T05:21:15;-1.50;67.70
20337;DHT22;10326;53.660;10.200;2022-12-13T05:23:42;-1.50;67.70
20337;DHT22;10326;53.660;10.200;2022-12-13T05:26:09;-1.50;67.70
20337;DHT22;10326;53.660;10.200;2022-12-13T05:28:36;-1.50;67.70
20337;DHT22;10326;53.660;10.200;2022-12-13T05:31:06;-1.50;67.80
20337;DHT22;10326;53.660;10.200;2022-12-13T05:33:36;-1.50;67.80
20337;DHT22;10326;53.660;10.200;2022-12-13T05:36:04;-1.50;67.90
20337;DHT22;10326;53.660;10.200;2022-12-13T05:38:32;-1.50;68.00
20337;DHT22;10326;53.660;10.200;2022-12-13T05:40:59;-1.40;68.20
20337;DHT22;10326;53.660;10.200;2022-12-13T05:43:26;-1.40;68.40
20337;DHT22;10326;53.660;10.200;2022-12-13T05:45:54;-1.40;68.60
20337;DHT22;10326;53.660;10.200;2022-12-13T05:48:21;-1.40;68.80
20337;DHT22;10326;53.660;10.200;2022-12-13T05:50:50;-1.30;69.10
20337;DHT22;10326;53.660;10.200;2022-12-13T05:53:18;-1.30;69.10
20337;DHT22;10326;53.660;10.200;2022-12-13T05:55:45;-1.20;69.30
20337;DHT22;10326;53.660;10.200;2022-12-13T05:58:12;-1.20;69.40
20337;DHT22;10326;53.660;10.200;2022-12-13T06:00:41;-1.10;69.50
20337;DHT22;10326;53.660;10.200;2022-12-13T06:03:08;-1.10;69.50
20337;DHT22;10326;53.660;10.200;2022-12-13T06:05:36;-1.00;69.60
20337;DHT22;10326;53.660;10.200;2022-12-13T06:08:04;-1.00;69.60
20337;DHT22;10326;53.660;10.200;2022-12-13T06:10:32;-0.90;69.80
20337;DHT22;10326;53.660;10.200;2022-12-13T06:12:59;-0.90;69.80
20337;DHT22;10326;53.660;10.200;2022-12-13T06:15:26;-0.80;69.90
20337;DHT22;10326;53.660;10.200;2022-12-13T06:17:53;-0.80;69.90
20337;DHT22;10326;53.660;10.200;2022-12-13T06:20:21;-0.70;70.00
20337;DHT22;10326;53.660;10.200;2022-12-13T06:22:48;-0.70;70.00
20337;DHT22;10326;53.660;10.200;2022-12-13T06:25:16;-0.60;70.10
20337;DHT22;10326;53.660;10.200;2022-12-13T06:27:44;-0.60;70.10
20337;DHT22;10326;53.660;10.200;2022-12-13T06:30:12;-0.60;70.10
20337;DHT22;10326;53.660;10.200;2022-12-13T06:32:39;-0.50;70.30
20337;DHT22;10326;53.660;10.200;2022-12-13T06:35:08;-0.50;70.20
20337;DHT22;10326;53.660;10.200;2022-12-13T06:37:35;-0.40;70.30
20337;DHT22;10326;53.660;10.200;2022-12-13T06:40:03;-0.40;70.20
20337;DHT22;10326;53.660;10.200;2022-12-13T06:42:32;-0.40;70.20
20337;DHT22;10326;53.660;10.200;2022-12-13T06:44:59;-0.30;70.30
20337;DHT22;10326;53.660;10.200;2022-12-13T06:47:26;-0.30;70.30
20337;DHT22;10326;53.660;10.200;2022-12-13T06:49:53;-0.30;70.20
20337;DHT22;10326;53.660;10.200;2022-12-13T06:52:21;-0.20;70.30
20337;DHT22;10326;53.660;10.200;2022-12-13T06:54:48;-0.20;70.30
20337;DHT22;10326;53.660;10.200;2022-12-13T06:57:15;-0.20;70.40
20337;DHT22;10326;53.660;10.200;2022-12-13T06:59:44;-0.10;70.40
20337;DHT22;10326;53.660;10.200;2022-12-13T07:02:11;-0.10;70.50
20337;DHT22;10326;53.660;10.200;2022-12-13T07:04:38;-0.10;70.40
20337;DHT22;10326;53.660;10.200;2022-12-13T07:07:06;0.00;70.50
20337;DHT22;10326;53.660;10.200;2022-12-13T07:09:33;0.00;70.50
20337;DHT22;10326;53.660;10.200;2022-12-13T07:12:00;0.00;70.50
20337;DHT22;10326;53.660;10.200;2022-12-13T07:14:27;0.00;70.50
20337;DHT22;10326;53.660;10.200;2022-12-13T07:16:57;0.10;70.60
20337;DHT22;10326;53.660;10.200;2022-12-13T07:19:24;0.10;70.70
20337;DHT22;10326;53.660;10.200;2022-12-13T07:21:51;0.10;70.70
20337;DHT22;10326;53.660;10.200;2022-12-13T07:24:19;0.10;70.60
20337;DHT22;10326;53.660;10.200;2022-12-13T07:26:47;0.20;70.80
20337;DHT22;10326;53.660;10.200;2022-12-13T07:29:14;0.20;70.80
20337;DHT22;10326;53.660;10.200;2022-12-13T07:31:41;0.20;70.90
20337;DHT22;10326;53.660;10.200;2022-12-13T07:34:09;0.20;70.90
20337;DHT22;10326;53.660;10.200;2022-12-13T07:36:37;0.30;70.90
20337;DHT22;10326;53.660;10.200;2022-12-13T07:39:04;0.30;70.90
20337;DHT22;10326;53.660;10.200;2022-12-13T07:41:31;0.30;71.00
20337;DHT22;10326;53.660;10.200;2022-12-13T07:43:59;0.40;71.10
20337;DHT22;10326;53.660;10.200;2022-12-13T07:46:26;0.40;71.10
20337;DHT22;10326;53.660;10.200;2022-12-13T07:48:53;0.40;71.10
20337;DHT22;10326;53.660;10.200;2022-12-13T07:51:21;0.40;71.10
20337;DHT22;10326;53.660;10.200;2022-12-13T07:53:48;0.50;71.20
20337;DHT22;10326;53.660;10.200;2022-12-13T07:56:16;0.50;71.20
20337;DHT22;10326;53.660;10.200;2022-12-13T07:58:43;0.50;71.20
20337;DHT22;10326;53.660;10.200;2022-12-13T08:01:12;0.60;71.20
20337;DHT22;10326;53.660;10.200;2022-12-13T08:03:39;0.60;71.20
20337;DHT22;10326;53.660;10.200;2022-12-13T08:06:07;0.60;71.20
20337;DHT22;10326;53.660;10.200;2022-12-13T08:08:37;0.60;71.30
20337;DHT22;10326;53.660;10.200;2022-12-13T08:11:06;0.60;71.40
20337;DHT22;10326;53.660;10.200;2022-12-13T08:13:35;0.70;71.50
20337;DHT22;10326;53.660;10.200;2022-12-13T08:16:03;0.70;71.50
20337;DHT22;10326;53.660;10.200;2022-12-13T08:18:32;0.70;71.50
20337;DHT22;10326;53.660;10.200;2022-12-13T08:21:00;0.70;71.60
20337;DHT22;10326;53.660;10.200;2022-12-13T08:23:29;0.80;71.60
20337;DHT22;10326;53.660;10.200;2022-12-13T08:25:59;0.80;71.60
20337;DHT22;10326;53.660;10.200;2022-12-13T08:28:28;0.80;71.60
20337;DHT22;10326;53.660;10.200;2022-12-13T08:31:02;0.80;71.60
20337;DHT22;10326;53.660;10.200;2022-12-13T08:33:30;0.90;71.80
20337;DHT22;10326;53.660;10.200;2022-12-13T08:36:06;0.90;71.70
20337;DHT22;10326;53.660;10.200;2022-12-13T08:38:34;0.90;71.80
20337;DHT22;10326;53.660;10.200;2022-12-13T08:41:04;0.90;71.70
20337;DHT22;10326;53.660;10.200;2022-12-13T08:43:31;1.00;71.90
20337;DHT22;10326;53.660;10.200;2022-12-13T08:45:58;1.00;71.90
20337;DHT22;10326;53.660;10.200;2022-12-13T08:48:26;1.10;72.00
20337;DHT22;10326;53.660;10.200;2022-12-13T08:50:54;1.10;72.00
20337;DHT22;10326;53.660;10.200;2022-12-13T08:53:24;1.10;72.00
20337;DHT22;10326;53.660;10.200;2022-12-13T08:55:52;1.20;72.10
20337;DHT22;10326;53.660;10.200;2022-12-13T08:58:20;1.20;72.10
20337;DHT22;10326;53.660;10.200;2022-12-13T09:00:48;1.20;72.10
20337;DHT22;10326;53.660;10.200;2022-12-13T09:03:15;1.20;72.10
20337;DHT22;10326;53.660;10.200;2022-12-13T09:05:42;1.30;72.10
20337;DHT22;10326;53.660;10.200;2022-12-13T09:08:10;1.30;72.00
20337;DHT22;10326;53.660;10.200;2022-12-13T09:10:37;1.30;72.00
20337;DHT22;10326;53.660;10.200;2022-12-13T09:13:04;1.30;71.90
20337;DHT22;10326;53.660;10.200;2022-12-13T09:15:33;1.30;71.80
20337;DHT22;10326;53.660;10.200;2022-12-13T09:18:04;1.30;71.80
20337;DHT22;10326;53.660;10.200;2022-12-13T09:20:31;1.30;71.90
20337;DHT22;10326;53.660;10.200;2022-12-13T09:23:02;1.40;72.10
20337;DHT22;10326;53.660;10.200;2022-12-13T09:25:30;1.30;72.20
20337;DHT22;10326;53.660;10.200;2022-12-13T09:27:58;1.40;72.20
20337;DHT22;10326;53.660;10.200;2022-12-13T09:30:27;1.40;72.20
20337;DHT22;10326;53.660;10.200;2022-12-13T09:32:56;1.40;72.20
20337;DHT22;10326;53.660;10.200;2022-12-13T09:35:23;1.40;72.20
20337;DHT22;10326;53.660;10.200;2022-12-13T09:37:50;1.50;72.30
20337;DHT22;10326;53.660;10.200;2022-12-13T09:40:21;1.40;72.20
20337;DHT22;10326;53.660;10.200;2022-12-13T09:42:52;1.50;72.20
20337;DHT22;10326;53.660;10.200;2022-12-13T09:45:21;1.50;72.20
20337;DHT22;10326;53.660;10.200;2022-12-13T09:47:50;1.50;72.20
20337;DHT22;10326;53.660;10.200;2022-12-13T09:50:24;1.50;72.10
20337;DHT22;10326;53.660;10.200;2022-12-13T09:52:53;1.50;72.10
20337;DHT22;10326;53.660;10.200;2022-12-13T09:55:24;1.50;72.10
20337;DHT22;10326;53.660;10.200;2022-12-13T09:57:54;1.50;72.20
20337;DHT22;10326;53.660;10.200;2022-12-13T10:00:23;1.50;72.30
20337;DHT22;10326;53.660;10.200;2022-12-13T10:02:53;1.50;72.40
20337;DHT22;10326;53.660;10.200;2022-12-13T10:05:28;1.50;72.40
20337;DHT22;10326;53.660;10.200;2022-12-13T10:07:59;1.50;72.50
20337;DHT22;10326;53.660;10.200;2022-12-13T10:10:27;1.60;72.60
20337;DHT22;10326;53.660;10.200;2022-12-13T10:13:00;1.60;72.60
20337;DHT22;10326;53.660;10.200;2022-12-13T10:15:32;1.60;73.30
20337;DHT22;10326;53.660;10.200;2022-12-13T10:18:03;1.60;72.60
20337;DHT22;10326;53.660;10.200;2022-12-13T10:20:32;1.60;72.80
20337;DHT22;10326;53.660;10.200;2022-12-13T10:23:00;1.70;72.90
20337;DHT22;10326;53.660;10.200;2022-12-13T10:25:46;1.70;73.00
20337;DHT22;10326;53.660;10.200;2022-12-13T10:28:16;1.80;73.50
20337;DHT22;10326;53.660;10.200;2022-12-13T10:30:44;1.80;73.30
20337;DHT22;10326;53.660;10.200;2022-12-13T10:33:21;1.80;73.40
20337;DHT22;10326;53.660;10.200;2022-12-13T10:36:14;1.90;73.60
20337;DHT22;10326;53.660;10.200;2022-12-13T10:38:55;1.90;73.80
20337;DHT22;10326;53.660;10.200;2022-12-13T10:41:33;2.00;73.50
20337;DHT22;10326;53.660;10.200;2022-12-13T10:44:22;2.00;73.70
20337;DHT22;10326;53.660;10.200;2022-12-13T10:46:57;2.10;73.80
20337;DHT22;10326;53.660;10.200;2022-12-13T10:49:34;2.10;73.60
20337;DHT22;10326;53.660;10.200;2022-12-13T10:52:17;2.10;73.60
20337;DHT22;10326;53.660;10.200;2022-12-13T10:54:47;2.20;73.50
20337;DHT22;10326;53.660;10.200;2022-12-13T10:57:15;2.20;73.50
20337;DHT22;10326;53.660;10.200;2022-12-13T10:59:43;2.20;73.50
20337;DHT22;10326;53.660;10.200;2022-12-13T11:02:28;2.30;73.50
20337;DHT22;10326;53.660;10.200;2022-12-13T11:04:58;2.30;73.50
20337;DHT22;10326;53.660;10.200;2022-12-13T11:07:29;2.30;73.20
20337;DHT22;10326;53.660;10.200;2022-12-13T11:12:42;2.30;73.20
20337;DHT22;10326;53.660;10.200;2022-12-13T11:15:14;2.40;73.20
20337;DHT22;10326;53.660;10.200;2022-12-13T11:17:47;2.40;73.20
20337;DHT22;10326;53.660;10.200;2022-12-13T11:20:20;2.40;73.30
20337;DHT22;10326;53.660;10.200;2022-12-13T11:22:58;2.50;73.50
20337;DHT22;10326;53.660;10.200;2022-12-13T11:25:32;2.50;73.60
20337;DHT22;10326;53.660;10.200;2022-12-13T11:28:15;2.50;73.60
20337;DHT22;10326;53.660;10.200;2022-12-13T11:30:59;2.50;73.70
20337;DHT22;10326;53.660;10.200;2022-12-13T11:33:39;2.60;73.80
20337;DHT22;10326;53.660;10.200;2022-12-13T11:36:19;2.60;73.70
20337;DHT22;10326;53.660;10.200;2022-12-13T11:39:13;2.60;73.70
20337;DHT22;10326;53.660;10.200;2022-12-13T11:41:48;2.70;73.80
20337;DHT22;10326;53.660;10.200;2022-12-13T11:44:25;2.70;73.70
20337;DHT22;10326;53.660;10.200;2022-12-13T11:46:58;2.70;73.70
20337;DHT22;10326;53.660;10.200;2022-12-13T11:49:36;2.80;73.70
20337;DHT22;10326;53.660;10.200;2022-12-13T11:52:11;2.80;73.80
20337;DHT22;10326;53.660;10.200;2022-12-13T11:54:49;2.90;73.70
20337;DHT22;10326;53.660;10.200;2022-12-13T11:57:34;2.90;73.70
20337;DHT22;10326;53.660;10.200;2022-12-13T12:00:09;2.90;73.50
20337;DHT22;10326;53.660;10.200;2022-12-13T12:02:51;2.90;73.40
20337;DHT22;10326;53.660;10.200;2022-12-13T12:05:26;2.90;73.30
20337;DHT22;10326;53.660;10.200;2022-12-13T12:07:59;3.00;73.40
20337;DHT22;10326;53.660;10.200;2022-12-13T12:10:34;3.00;73.30
20337;DHT22;10326;53.660;10.200;2022-12-13T12:13:09;3.00;73.30
20337;DHT22;10326;53.660;10.200;2022-12-13T12:15:44;3.00;73.20
20337;DHT22;10326;53.660;10.200;2022-12-13T12:18:15;3.00;73.20
20337;DHT22;10326;53.660;10.200;2022-12-13T12:20:50;3.10;73.30
20337;DHT22;10326;53.660;10.200;2022-12-13T12:23:35;3.10;73.30
20337;DHT22;10326;53.660;10.200;2022-12-13T12:26:13;3.10;73.20
20337;DHT22;10326;53.660;10.200;2022-12-13T12:29:03;3.10;73.20
20337;DHT22;10326;53.660;10.200;2022-12-13T12:31:44;3.10;73.20
20337;DHT22;10326;53.660;10.200;2022-12-13T12:34:26;3.10;73.10
20337;DHT22;10326;53.660;10.200;2022-12-13T12:37:10;3.10;73.10
20337;DHT22;10326;53.660;10.200;2022-12-13T12:39:48;3.10;73.10
20337;DHT22;10326;53.660;10.200;2022-12-13T12:42:37;3.20;73.30
20337;DHT22;10326;53.660;10.200;2022-12-13T12:45:21;3.20;73.30
20337;DHT22;10326;53.660;10.200;2022-12-13T12:48:08;3.20;73.20
20337;DHT22;10326;53.660;10.200;2022-12-13T12:50:43;3.20;73.10
20337;DHT22;10326;53.660;10.200;2022-12-13T12:53:29;3.20;73.20
20337;DHT22;10326;53.660;10.200;2022-12-13T12:56:21;3.20;73.30
20337;DHT22;10326;53.660;10.200;2022-12-13T12:59:00;3.30;73.40
20337;DHT22;10326;53.660;10.200;2022-12-13T13:01:41;3.30;73.50
20337;DHT22;10326;53.660;10.200;2022-12-13T13:04:17;3.40;73.70
20337;DHT22;10326;53.660;10.200;2022-12-13T13:06:51;3.40;73.70
20337;DHT22;10326;53.660;10.200;2022-12-13T13:09:21;3.50;73.70
20337;DHT22;10326;53.660;10.200;2022-12-13T13:11:49;3.50;73.50
20337;DHT22;10326;53.660;10.200;2022-12-13T13:14:30;3.50;73.30
20337;DHT22;10326;53.660;10.200;2022-12-13T13:16:59;3.60;73.30
20337;DHT22;10326;53.660;10.200;2022-12-13T13:19:47;3.60;73.30
20337;DHT22;10326;53.660;10.200;2022-12-13T13:22:30;3.60;73.00
20337;DHT22;10326;53.660;10.200;2022-12-13T13:25:12;3.70;73.10
20337;DHT22;10326;53.660;10.200;2022-12-13T13:27:46;3.70;73.00
20337;DHT22;10326;53.660;10.200;2022-12-13T13:30:19;3.70;72.90
20337;DHT22;10326;53.660;10.200;2022-12-13T13:32:48;3.70;72.80
20337;DHT22;10326;53.660;10.200;2022-12-13T13:38:48;3.70;72.50
20337;DHT22;10326;53.660;10.200;2022-12-13T13:48:06;3.60;72.30
20337;DHT22;10326;53.660;10.200;2022-12-13T13:58:08;3.50;72.10
20337;DHT22;10326;53.660;10.200;2022-12-13T14:01:32;3.50;72.10
20337;DHT22;10326;53.660;10.200;2022-12-13T14:05:04;3.40;72.10
20337;DHT22;10326;53.660;10.200;2022-12-13T14:10:51;3.40;72.40
20337;DHT22;10326;53.660;10.200;2022-12-13T14:14:05;3.40;72.40
20337;DHT22;10326;53.660;10.200;2022-12-13T14:20:35;3.40;72.40
20337;DHT22;10326;53.660;10.200;2022-12-13T14:23:17;3.40;72.40
20337;DHT22;10326;53.660;10.200;2022-12-13T14:26:06;3.40;72.40
20337;DHT22;10326;53.660;10.200;2022-12-13T14:28:47;3.40;72.30
20337;DHT22;10326;53.660;10.200;2022-12-13T14:31:19;3.40;72.40
20337;DHT22;10326;53.660;10.200;2022-12-13T14:33:50;3.30;72.30
20337;DHT22;10326;53.660;10.200;2022-12-13T14:36:26;3.40;72.50
20337;DHT22;10326;53.660;10.200;2022-12-13T14:39:00;3.40;72.60
20337;DHT22;10326;53.660;10.200;2022-12-13T14:41:27;3.40;72.60
20337;DHT22;10326;53.660;10.200;2022-12-13T14:43:55;3.40;72.60
20337;DHT22;10326;53.660;10.200;2022-12-13T14:46:22;3.40;72.60
20337;DHT22;10326;53.660;10.200;2022-12-13T14:48:52;3.40;72.60
20337;DHT22;10326;53.660;10.200;2022-12-13T14:51:31;3.40;72.60
20337;DHT22;10326;53.660;10.200;2022-12-13T14:54:02;3.40;72.60
20337;DHT22;10326;53.660;10.200;2022-12-13T14:56:31;3.40;72.60
20337;DHT22;10326;53.660;10.200;2022-12-13T14:59:00;3.40;72.60
20337;DHT22;10326;53.660;10.200;2022-12-13T15:01:29;3.40;72.60
20337;DHT22;10326;53.660;10.200;2022-12-13T15:04:20;3.40;72.60
20337;DHT22;10326;53.660;10.200;2022-12-13T15:07:10;3.40;72.60
20337;DHT22;10326;53.660;10.200;2022-12-13T15:09:41;3.40;72.50
20337;DHT22;10326;53.660;10.200;2022-12-13T15:12:12;3.40;72.50
20337;DHT22;10326;53.660;10.200;2022-12-13T15:14:42;3.40;72.50
20337;DHT22;10326;53.660;10.200;2022-12-13T15:17:29;3.40;72.50
20337;DHT22;10326;53.660;10.200;2022-12-13T15:20:21;3.40;72.50
20337;DHT22;10326;53.660;10.200;2022-12-13T15:22:58;3.40;72.40
20337;DHT22;10326;53.660;10.200;2022-12-13T15:25:35;3.40;72.50
20337;DHT22;10326;53.660;10.200;2022-12-13T15:28:03;3.40;72.40
20337;DHT22;10326;53.660;10.200;2022-12-13T15:30:33;3.40;72.30
20337;DHT22;10326;53.660;10.200;2022-12-13T15:33:02;3.40;72.20
20337;DHT22;10326;53.660;10.200;2022-12-13T15:35:34;3.40;72.20
20337;DHT22;10326;53.660;10.200;2022-12-13T15:38:03;3.40;72.20
20337;DHT22;10326;53.660;10.200;2022-12-13T15:40:30;3.40;72.10
20337;DHT22;10326;53.660;10.200;2022-12-13T15:42:59;3.40;72.10
20337;DHT22;10326;53.660;10.200;2022-12-13T15:45:26;3.40;72.10
20337;DHT22;10326;53.660;10.200;2022-12-13T15:47:54;3.30;72.00
20337;DHT22;10326;53.660;10.200;2022-12-13T15:50:34;3.30;72.00
20337;DHT22;10326;53.660;10.200;2022-12-13T15:53:15;3.30;71.80
20337;DHT22;10326;53.660;10.200;2022-12-13T15:55:45;3.30;71.70
20337;DHT22;10326;53.660;10.200;2022-12-13T15:58:24;3.20;71.60
20337;DHT22;10326;53.660;10.200;2022-12-13T16:00:52;3.20;71.50
20337;DHT22;10326;53.660;10.200;2022-12-13T16:03:22;3.20;71.60
20337;DHT22;10326;53.660;10.200;2022-12-13T16:05:53;3.10;71.50
20337;DHT22;10326;53.660;10.200;2022-12-13T16:08:25;3.10;71.60
20337;DHT22;10326;53.660;10.200;2022-12-13T16:10:55;3.00;71.50
20337;DHT22;10326;53.660;10.200;2022-12-13T16:13:24;3.00;72.10
20337;DHT22;10326;53.660;10.200;2022-12-13T16:15:54;3.00;71.50
20337;DHT22;10326;53.660;10.200;2022-12-13T16:18:24;3.00;71.50
20337;DHT22;10326;53.660;10.200;2022-12-13T16:20:57;2.90;71.40
20337;DHT22;10326;53.660;10.200;2022-12-13T16:23:24;2.90;71.40